sensor_id;sensor_type;location;lat;lon;timestamp;P1;durP1;ratioP1;P2;durP2;ratioP2
30543;SDS011;43388;46.308;4.600;2023-07-13T00:02:10;4.32;;;1.55;;
30543;SDS011;43388;46.308;4.600;2023-07-13T00:04:36;4.07;;;1.90;;
30543;SDS011;43388;46.308;4.600;2023-07-13T00:07:02;5.03;;;2.28;;
30543;SDS011;43388;46.308;4.600;2023-07-13T00:09:28;4.05;;;1.85;;
30543;SDS011;43388;46.308;4.600;2023-07-13T00:11:55;3.38;;;1.58;;
30543;SDS011;43388;46.308;4.600;2023-07-13T00:14:22;4.68;;;1.60;;
30543;SDS011;43388;46.308;4.600;2023-07-13T00:16:48;3.58;;;1.60;;
30543;SDS011;43388;46.308;4.600;2023-07-13T00:19:14;6.97;;;1.77;;
30543;SDS011;43388;46.308;4.600;2023-07-13T00:21:41;6.70;;;1.63;;
30543;SDS011;43388;46.308;4.600;2023-07-13T00:24:07;8.00;;;1.92;;
30543;SDS011;43388;46.308;4.600;2023-07-13T00:26:34;5.47;;;1.92;;
30543;SDS011;43388;46.308;4.600;2023-07-13T00:29:00;4.75;;;1.90;;
30543;SDS011;43388;46.308;4.600;2023-07-13T00:31:26;4.00;;;1.95;;
30543;SDS011;43388;46.308;4.600;2023-07-13T00:33:52;4.93;;;1.50;;
30543;SDS011;43388;46.308;4.600;2023-07-13T00:36:19;5.38;;;1.50;;
30543;SDS011;43388;46.308;4.600;2023-07-13T00:38:45;10.77;;;1.80;;
30543;SDS011;43388;46.308;4.600;2023-07-13T00:41:12;7.88;;;1.67;;
30543;SDS011;43388;46.308;4.600;2023-07-13T00:43:38;7.45;;;1.67;;
30543;SDS011;43388;46.308;4.600;2023-07-13T00:46:12;2.97;;;1.70;;
30543;SDS011;43388;46.308;4.600;2023-07-13T00:48:38;6.20;;;1.95;;
30543;SDS011;43388;46.308;4.600;2023-07-13T00:51:04;10.63;;;1.77;;
30543;SDS011;43388;46.308;4.600;2023-07-13T00:53:30;4.28;;;1.65;;
30543;SDS011;43388;46.308;4.600;2023-07-13T00:55:57;5.78;;;2.05;;
30543;SDS011;43388;46.308;4.600;2023-07-13T00:58:27;7.55;;;1.60;;
30543;SDS011;43388;46.308;4.600;2023-07-13T01:00:54;6.57;;;1.90;;
30543;SDS011;43388;46.308;4.600;2023-07-13T01:03:20;4.68;;;1.95;;
30543;SDS011;43388;46.308;4.600;2023-07-13T01:05:47;5.25;;;1.63;;
30543;SDS011;43388;46.308;4.600;2023-07-13T01:08:14;5.15;;;1.80;;
30543;SDS011;43388;46.308;4.600;2023-07-13T01:10:40;12.25;;;2.20;;
30543;SDS011;43388;46.308;4.600;2023-07-13T01:13:07;3.75;;;1.40;;
30543;SDS011;43388;46.308;4.600;2023-07-13T01:15:41;3.20;;;1.80;;
30543;SDS011;43388;46.308;4.600;2023-07-13T01:18:08;5.50;;;1.95;;
30543;SDS011;43388;46.308;4.600;2023-07-13T01:20:35;8.27;;;2.55;;
30543;SDS011;43388;46.308;4.600;2023-07-13T01:23:03;4.10;;;1.80;;
30543;SDS011;43388;46.308;4.600;2023-07-13T01:25:31;5.05;;;2.25;;
30543;SDS011;43388;46.308;4.600;2023-07-13T01:27:57;4.57;;;1.58;;
30543;SDS011;43388;46.308;4.600;2023-07-13T01:30:23;5.22;;;1.80;;
30543;SDS011;43388;46.308;4.600;2023-07-13T01:32:49;3.08;;;1.95;;
30543;SDS011;43388;46.308;4.600;2023-07-13T01:35:15;7.47;;;2.50;;
30543;SDS011;43388;46.308;4.600;2023-07-13T01:37:41;3.58;;;1.98;;
30543;SDS011;43388;46.308;4.600;2023-07-13T01:40:10;5.75;;;1.90;;
30543;SDS011;43388;46.308;4.600;2023-07-13T01:42:36;4.05;;;1.98;;
30543;SDS011;43388;46.308;4.600;2023-07-13T01:45:02;4.05;;;2.00;;
30543;SDS011;43388;46.308;4.600;2023-07-13T01:47:29;7.10;;;2.25;;
30543;SDS011;43388;46.308;4.600;2023-07-13T01:49:56;6.10;;;1.73;;
30543;SDS011;43388;46.308;4.600;2023-07-13T01:52:22;6.35;;;1.90;;
30543;SDS011;43388;46.308;4.600;2023-07-13T01:54:48;4.78;;;1.98;;
30543;SDS011;43388;46.308;4.600;2023-07-13T01:57:14;5.22;;;1.95;;
30543;SDS011;43388;46.308;4.600;2023-07-13T01:59:40;10.52;;;2.60;;
30543;SDS011;43388;46.308;4.600;2023-07-13T02:02:06;3.78;;;1.92;;
30543;SDS011;43388;46.308;4.600;2023-07-13T02:04:32;4.57;;;1.90;;
30543;SDS011;43388;46.308;4.600;2023-07-13T02:06:59;3.55;;;1.88;;
30543;SDS011;43388;46.308;4.600;2023-07-13T02:09:25;7.18;;;2.10;;
30543;SDS011;43388;46.308;4.600;2023-07-13T02:11:51;6.25;;;1.90;;
30543;SDS011;43388;46.308;4.600;2023-07-13T02:14:17;5.00;;;2.35;;
30543;SDS011;43388;46.308;4.600;2023-07-13T02:16:43;4.65;;;2.10;;
30543;SDS011;43388;46.308;4.600;2023-07-13T02:19:09;10.15;;;2.33;;
30543;SDS011;43388;46.308;4.600;2023-07-13T02:21:35;2.15;;;1.88;;
30543;SDS011;43388;46.308;4.600;2023-07-13T02:24:01;4.03;;;1.88;;
30543;SDS011;43388;46.308;4.600;2023-07-13T02:26:27;4.63;;;1.83;;
30543;SDS011;43388;46.308;4.600;2023-07-13T02:28:53;6.22;;;2.08;;
30543;SDS011;43388;46.308;4.600;2023-07-13T02:31:19;5.43;;;2.45;;
30543;SDS011;43388;46.308;4.600;2023-07-13T02:33:45;4.72;;;1.90;;
30543;SDS011;43388;46.308;4.600;2023-07-13T02:36:12;3.88;;;2.05;;
30543;SDS011;43388;46.308;4.600;2023-07-13T02:38:41;4.00;;;2.22;;
30543;SDS011;43388;46.308;4.600;2023-07-13T02:41:07;4.40;;;2.10;;
30543;SDS011;43388;46.308;4.600;2023-07-13T02:43:34;5.25;;;2.30;;
30543;SDS011;43388;46.308;4.600;2023-07-13T02:46:00;8.25;;;2.45;;
30543;SDS011;43388;46.308;4.600;2023-07-13T02:48:32;7.38;;;2.78;;
30543;SDS011;43388;46.308;4.600;2023-07-13T02:50:58;6.95;;;2.70;;
30543;SDS011;43388;46.308;4.600;2023-07-13T02:53:24;6.85;;;2.40;;
30543;SDS011;43388;46.308;4.600;2023-07-13T02:55:50;10.23;;;2.65;;
30543;SDS011;43388;46.308;4.600;2023-07-13T02:58:16;4.07;;;2.17;;
30543;SDS011;43388;46.308;4.600;2023-07-13T03:00:43;7.15;;;2.40;;
30543;SDS011;43388;46.308;4.600;2023-07-13T03:03:11;9.32;;;2.42;;
30543;SDS011;43388;46.308;4.600;2023-07-13T03:05:40;5.07;;;2.53;;
30543;SDS011;43388;46.308;4.600;2023-07-13T03:08:07;5.10;;;2.03;;
30543;SDS011;43388;46.308;4.600;2023-07-13T03:10:33;4.22;;;1.73;;
30543;SDS011;43388;46.308;4.600;2023-07-13T03:12:59;4.97;;;2.10;;
30543;SDS011;43388;46.308;4.600;2023-07-13T03:15:25;6.05;;;1.98;;
30543;SDS011;43388;46.308;4.600;2023-07-13T03:17:51;5.00;;;2.22;;
30543;SDS011;43388;46.308;4.600;2023-07-13T03:20:17;6.90;;;2.20;;
30543;SDS011;43388;46.308;4.600;2023-07-13T03:22:43;6.13;;;2.10;;
30543;SDS011;43388;46.308;4.600;2023-07-13T03:25:09;4.22;;;2.42;;
30543;SDS011;43388;46.308;4.600;2023-07-13T03:27:35;6.78;;;2.00;;
30543;SDS011;43388;46.308;4.600;2023-07-13T03:30:02;2.67;;;2.03;;
30543;SDS011;43388;46.308;4.600;2023-07-13T03:32:28;10.75;;;2.42;;
30543;SDS011;43388;46.308;4.600;2023-07-13T03:34:54;4.35;;;2.25;;
30543;SDS011;43388;46.308;4.600;2023-07-13T03:37:20;4.38;;;2.20;;
30543;SDS011;43388;46.308;4.600;2023-07-13T03:39:46;4.47;;;2.28;;
30543;SDS011;43388;46.308;4.600;2023-07-13T03:42:12;5.32;;;2.20;;
30543;SDS011;43388;46.308;4.600;2023-07-13T03:44:39;3.55;;;2.22;;
30543;SDS011;43388;46.308;4.600;2023-07-13T03:47:05;7.55;;;2.50;;
30543;SDS011;43388;46.308;4.600;2023-07-13T03:49:33;5.72;;;2.28;;
30543;SDS011;43388;46.308;4.600;2023-07-13T03:52:00;6.55;;;2.22;;
30543;SDS011;43388;46.308;4.600;2023-07-13T03:54:26;6.70;;;2.38;;
30543;SDS011;43388;46.308;4.600;2023-07-13T03:56:52;6.97;;;2.35;;
30543;SDS011;43388;46.308;4.600;2023-07-13T03:59:18;4.70;;;2.28;;
30543;SDS011;43388;46.308;4.600;2023-07-13T04:01:44;5.22;;;1.95;;
30543;SDS011;43388;46.308;4.600;2023-07-13T04:04:10;5.47;;;2.42;;
30543;SDS011;43388;46.308;4.600;2023-07-13T04:06:36;3.47;;;2.53;;
30543;SDS011;43388;46.308;4.600;2023-07-13T04:09:03;7.72;;;2.45;;
30543;SDS011;43388;46.308;4.600;2023-07-13T04:11:30;6.60;;;2.33;;
30543;SDS011;43388;46.308;4.600;2023-07-13T04:13:57;6.63;;;2.42;;
30543;SDS011;43388;46.308;4.600;2023-07-13T04:16:23;7.97;;;2.40;;
30543;SDS011;43388;46.308;4.600;2023-07-13T04:18:50;6.07;;;2.20;;
30543;SDS011;43388;46.308;4.600;2023-07-13T04:21:20;4.38;;;2.35;;
30543;SDS011;43388;46.308;4.600;2023-07-13T04:23:46;4.45;;;2.30;;
30543;SDS011;43388;46.308;4.600;2023-07-13T04:26:12;6.22;;;2.60;;
30543;SDS011;43388;46.308;4.600;2023-07-13T04:28:38;7.05;;;2.83;;
30543;SDS011;43388;46.308;4.600;2023-07-13T04:31:04;4.88;;;2.80;;
30543;SDS011;43388;46.308;4.600;2023-07-13T04:33:31;5.47;;;2.30;;
30543;SDS011;43388;46.308;4.600;2023-07-13T04:35:57;4.88;;;2.22;;
30543;SDS011;43388;46.308;4.600;2023-07-13T04:38:24;3.88;;;2.55;;
30543;SDS011;43388;46.308;4.600;2023-07-13T04:40:52;3.90;;;2.33;;
30543;SDS011;43388;46.308;4.600;2023-07-13T04:43:18;7.75;;;2.28;;
30543;SDS011;43388;46.308;4.600;2023-07-13T04:45:44;4.40;;;2.30;;
30543;SDS011;43388;46.308;4.600;2023-07-13T04:48:10;4.97;;;2.40;;
30543;SDS011;43388;46.308;4.600;2023-07-13T04:50:36;5.22;;;2.47;;
30543;SDS011;43388;46.308;4.600;2023-07-13T04:53:03;7.28;;;2.45;;
30543;SDS011;43388;46.308;4.600;2023-07-13T04:55:29;6.82;;;2.13;;
30543;SDS011;43388;46.308;4.600;2023-07-13T04:57:55;5.13;;;2.10;;
30543;SDS011;43388;46.308;4.600;2023-07-13T05:00:23;5.72;;;2.47;;
30543;SDS011;43388;46.308;4.600;2023-07-13T05:02:49;4.10;;;2.30;;
30543;SDS011;43388;46.308;4.600;2023-07-13T05:05:16;9.02;;;2.63;;
30543;SDS011;43388;46.308;4.600;2023-07-13T05:07:42;5.70;;;2.40;;
30543;SDS011;43388;46.308;4.600;2023-07-13T05:10:08;4.50;;;2.42;;
30543;SDS011;43388;46.308;4.600;2023-07-13T05:12:34;4.63;;;2.22;;
30543;SDS011;43388;46.308;4.600;2023-07-13T05:15:01;12.40;;;2.45;;
30543;SDS011;43388;46.308;4.600;2023-07-13T05:17:27;7.88;;;2.45;;
30543;SDS011;43388;46.308;4.600;2023-07-13T05:19:54;6.90;;;2.80;;
30543;SDS011;43388;46.308;4.600;2023-07-13T05:22:20;5.78;;;2.58;;
30543;SDS011;43388;46.308;4.600;2023-07-13T05:24:46;5.50;;;2.03;;
30543;SDS011;43388;46.308;4.600;2023-07-13T05:27:12;7.68;;;2.70;;
30543;SDS011;43388;46.308;4.600;2023-07-13T05:29:38;5.35;;;2.40;;
30543;SDS011;43388;46.308;4.600;2023-07-13T05:32:04;6.15;;;2.50;;
30543;SDS011;43388;46.308;4.600;2023-07-13T05:34:30;6.25;;;2.38;;
30543;SDS011;43388;46.308;4.600;2023-07-13T05:36:56;5.30;;;2.30;;
30543;SDS011;43388;46.308;4.600;2023-07-13T05:39:22;8.40;;;2.72;;
30543;SDS011;43388;46.308;4.600;2023-07-13T05:41:48;6.38;;;2.72;;
30543;SDS011;43388;46.308;4.600;2023-07-13T05:44:14;3.78;;;2.30;;
30543;SDS011;43388;46.308;4.600;2023-07-13T05:46:40;8.10;;;2.70;;
30543;SDS011;43388;46.308;4.600;2023-07-13T05:49:06;5.90;;;2.47;;
30543;SDS011;43388;46.308;4.600;2023-07-13T05:51:32;9.50;;;2.95;;
30543;SDS011;43388;46.308;4.600;2023-07-13T05:53:58;5.25;;;2.42;;
30543;SDS011;43388;46.308;4.600;2023-07-13T05:56:24;5.45;;;2.90;;
30543;SDS011;43388;46.308;4.600;2023-07-13T05:58:51;9.13;;;3.05;;
30543;SDS011;43388;46.308;4.600;2023-07-13T06:01:17;9.60;;;2.90;;
30543;SDS011;43388;46.308;4.600;2023-07-13T06:03:45;5.43;;;2.70;;
30543;SDS011;43388;46.308;4.600;2023-07-13T06:06:11;4.63;;;2.42;;
30543;SDS011;43388;46.308;4.600;2023-07-13T06:08:37;8.75;;;3.00;;
30543;SDS011;43388;46.308;4.600;2023-07-13T06:13:30;4.95;;;2.90;;
30543;SDS011;43388;46.308;4.600;2023-07-13T06:15:56;7.75;;;3.17;;
30543;SDS011;43388;46.308;4.600;2023-07-13T06:18:22;4.32;;;2.47;;
30543;SDS011;43388;46.308;4.600;2023-07-13T06:20:48;5.30;;;2.75;;
30543;SDS011;43388;46.308;4.600;2023-07-13T06:23:14;11.50;;;3.30;;
30543;SDS011;43388;46.308;4.600;2023-07-13T06:25:40;7.30;;;3.00;;
30543;SDS011;43388;46.308;4.600;2023-07-13T06:28:06;7.35;;;2.50;;
30543;SDS011;43388;46.308;4.600;2023-07-13T06:30:32;8.77;;;2.78;;
30543;SDS011;43388;46.308;4.600;2023-07-13T06:32:58;3.72;;;2.60;;
30543;SDS011;43388;46.308;4.600;2023-07-13T06:35:24;6.95;;;2.67;;
30543;SDS011;43388;46.308;4.600;2023-07-13T06:37:50;6.13;;;2.92;;
30543;SDS011;43388;46.308;4.600;2023-07-13T06:40:16;5.53;;;2.67;;
30543;SDS011;43388;46.308;4.600;2023-07-13T06:42:42;6.28;;;2.72;;
30543;SDS011;43388;46.308;4.600;2023-07-13T06:45:08;6.80;;;2.33;;
30543;SDS011;43388;46.308;4.600;2023-07-13T06:47:34;6.40;;;2.55;;
30543;SDS011;43388;46.308;4.600;2023-07-13T06:50:00;5.10;;;2.50;;
30543;SDS011;43388;46.308;4.600;2023-07-13T06:52:26;7.93;;;2.40;;
30543;SDS011;43388;46.308;4.600;2023-07-13T06:54:52;7.55;;;2.70;;
30543;SDS011;43388;46.308;4.600;2023-07-13T06:57:18;4.07;;;2.10;;
30543;SDS011;43388;46.308;4.600;2023-07-13T06:59:44;5.22;;;1.90;;
30543;SDS011;43388;46.308;4.600;2023-07-13T07:02:10;6.90;;;2.65;;
30543;SDS011;43388;46.308;4.600;2023-07-13T07:04:36;5.38;;;2.45;;
30543;SDS011;43388;46.308;4.600;2023-07-13T07:07:03;5.85;;;2.38;;
30543;SDS011;43388;46.308;4.600;2023-07-13T07:09:29;5.90;;;2.45;;
30543;SDS011;43388;46.308;4.600;2023-07-13T07:11:56;3.58;;;2.25;;
30543;SDS011;43388;46.308;4.600;2023-07-13T07:14:22;3.30;;;2.10;;
30543;SDS011;43388;46.308;4.600;2023-07-13T07:16:49;6.13;;;2.00;;
30543;SDS011;43388;46.308;4.600;2023-07-13T07:19:15;4.68;;;2.30;;
30543;SDS011;43388;46.308;4.600;2023-07-13T07:21:41;5.82;;;1.98;;
30543;SDS011;43388;46.308;4.600;2023-07-13T07:24:07;4.15;;;1.77;;
30543;SDS011;43388;46.308;4.600;2023-07-13T07:26:33;7.22;;;2.00;;
30543;SDS011;43388;46.308;4.600;2023-07-13T07:28:59;4.95;;;2.10;;
30543;SDS011;43388;46.308;4.600;2023-07-13T07:31:25;3.97;;;1.95;;
30543;SDS011;43388;46.308;4.600;2023-07-13T07:33:51;8.85;;;2.40;;
30543;SDS011;43388;46.308;4.600;2023-07-13T07:36:17;5.20;;;2.53;;
30543;SDS011;43388;46.308;4.600;2023-07-13T07:38:43;6.15;;;2.30;;
30543;SDS011;43388;46.308;4.600;2023-07-13T07:41:10;4.45;;;2.55;;
30543;SDS011;43388;46.308;4.600;2023-07-13T07:43:36;9.15;;;3.08;;
30543;SDS011;43388;46.308;4.600;2023-07-13T07:46:02;7.53;;;3.03;;
30543;SDS011;43388;46.308;4.600;2023-07-13T07:48:28;9.85;;;2.85;;
30543;SDS011;43388;46.308;4.600;2023-07-13T07:50:54;6.35;;;3.00;;
30543;SDS011;43388;46.308;4.600;2023-07-13T07:53:20;3.63;;;2.17;;
30543;SDS011;43388;46.308;4.600;2023-07-13T07:55:46;13.65;;;2.60;;
30543;SDS011;43388;46.308;4.600;2023-07-13T07:58:12;7.00;;;2.45;;
30543;SDS011;43388;46.308;4.600;2023-07-13T08:00:39;5.97;;;2.90;;
30543;SDS011;43388;46.308;4.600;2023-07-13T08:03:05;5.88;;;2.20;;
30543;SDS011;43388;46.308;4.600;2023-07-13T08:05:31;6.05;;;2.30;;
30543;SDS011;43388;46.308;4.600;2023-07-13T08:07:57;5.70;;;2.55;;
30543;SDS011;43388;46.308;4.600;2023-07-13T08:10:23;4.45;;;2.10;;
30543;SDS011;43388;46.308;4.600;2023-07-13T08:12:49;8.57;;;2.08;;
30543;SDS011;43388;46.308;4.600;2023-07-13T08:15:16;3.97;;;2.00;;
30543;SDS011;43388;46.308;4.600;2023-07-13T08:17:42;8.85;;;2.08;;
30543;SDS011;43388;46.308;4.600;2023-07-13T08:20:08;4.07;;;1.90;;
30543;SDS011;43388;46.308;4.600;2023-07-13T08:22:34;3.50;;;1.98;;
30543;SDS011;43388;46.308;4.600;2023-07-13T08:25:00;8.23;;;2.50;;
30543;SDS011;43388;46.308;4.600;2023-07-13T08:27:27;3.65;;;1.90;;
30543;SDS011;43388;46.308;4.600;2023-07-13T08:29:53;3.55;;;1.98;;
30543;SDS011;43388;46.308;4.600;2023-07-13T08:32:20;4.47;;;2.28;;
30543;SDS011;43388;46.308;4.600;2023-07-13T08:34:47;7.35;;;1.88;;
30543;SDS011;43388;46.308;4.600;2023-07-13T08:37:13;8.27;;;2.47;;
30543;SDS011;43388;46.308;4.600;2023-07-13T08:39:39;7.50;;;2.20;;
30543;SDS011;43388;46.308;4.600;2023-07-13T08:42:14;4.40;;;2.10;;
30543;SDS011;43388;46.308;4.600;2023-07-13T08:44:52;5.63;;;2.10;;
30543;SDS011;43388;46.308;4.600;2023-07-13T08:47:21;4.57;;;1.98;;
30543;SDS011;43388;46.308;4.600;2023-07-13T08:49:48;3.63;;;2.25;;
30543;SDS011;43388;46.308;4.600;2023-07-13T08:52:17;3.92;;;2.22;;
30543;SDS011;43388;46.308;4.600;2023-07-13T08:54:50;5.82;;;2.50;;
30543;SDS011;43388;46.308;4.600;2023-07-13T08:57:17;5.05;;;2.38;;
30543;SDS011;43388;46.308;4.600;2023-07-13T08:59:44;5.25;;;2.28;;
30543;SDS011;43388;46.308;4.600;2023-07-13T09:04:41;6.78;;;1.83;;
30543;SDS011;43388;46.308;4.600;2023-07-13T09:07:18;5.72;;;2.38;;
30543;SDS011;43388;46.308;4.600;2023-07-13T09:12:30;5.47;;;2.70;;
30543;SDS011;43388;46.308;4.600;2023-07-13T09:14:58;2.67;;;1.70;;
30543;SDS011;43388;46.308;4.600;2023-07-13T09:17:26;6.45;;;2.33;;
30543;SDS011;43388;46.308;4.600;2023-07-13T09:19:54;8.15;;;2.13;;
30543;SDS011;43388;46.308;4.600;2023-07-13T09:22:22;5.95;;;1.65;;
30543;SDS011;43388;46.308;4.600;2023-07-13T09:27:22;4.20;;;1.75;;
30543;SDS011;43388;46.308;4.600;2023-07-13T09:29:50;3.20;;;1.70;;
30543;SDS011;43388;46.308;4.600;2023-07-13T09:32:21;4.85;;;1.65;;
30543;SDS011;43388;46.308;4.600;2023-07-13T09:34:51;4.03;;;1.58;;
30543;SDS011;43388;46.308;4.600;2023-07-13T09:37:18;5.22;;;1.50;;
30543;SDS011;43388;46.308;4.600;2023-07-13T09:39:45;3.00;;;1.50;;
30543;SDS011;43388;46.308;4.600;2023-07-13T09:42:16;3.42;;;1.65;;
30543;SDS011;43388;46.308;4.600;2023-07-13T09:47:19;3.85;;;1.50;;
30543;SDS011;43388;46.308;4.600;2023-07-13T09:49:48;5.35;;;1.45;;
30543;SDS011;43388;46.308;4.600;2023-07-13T09:52:19;3.92;;;1.58;;
30543;SDS011;43388;46.308;4.600;2023-07-13T09:54:46;2.28;;;1.60;;
30543;SDS011;43388;46.308;4.600;2023-07-13T09:57:17;4.53;;;1.42;;
30543;SDS011;43388;46.308;4.600;2023-07-13T09:59:44;9.38;;;1.40;;
30543;SDS011;43388;46.308;4.600;2023-07-13T10:04:55;3.38;;;1.50;;
30543;SDS011;43388;46.308;4.600;2023-07-13T10:07:22;4.80;;;1.90;;
30543;SDS011;43388;46.308;4.600;2023-07-13T10:09:51;4.47;;;1.40;;
30543;SDS011;43388;46.308;4.600;2023-07-13T10:12:19;4.18;;;1.50;;
30543;SDS011;43388;46.308;4.600;2023-07-13T10:14:45;2.35;;;1.60;;
30543;SDS011;43388;46.308;4.600;2023-07-13T10:17:12;2.25;;;1.25;;
30543;SDS011;43388;46.308;4.600;2023-07-13T10:19:39;4.38;;;1.50;;
30543;SDS011;43388;46.308;4.600;2023-07-13T10:22:16;3.80;;;1.77;;
30543;SDS011;43388;46.308;4.600;2023-07-13T10:24:46;4.78;;;1.85;;
30543;SDS011;43388;46.308;4.600;2023-07-13T10:27:15;3.75;;;1.55;;
30543;SDS011;43388;46.308;4.600;2023-07-13T10:29:52;4.15;;;1.65;;
30543;SDS011;43388;46.308;4.600;2023-07-13T10:32:20;4.13;;;1.63;;
30543;SDS011;43388;46.308;4.600;2023-07-13T10:34:48;3.65;;;1.50;;
30543;SDS011;43388;46.308;4.600;2023-07-13T10:37:19;3.90;;;1.40;;
30543;SDS011;43388;46.308;4.600;2023-07-13T10:39:47;3.45;;;1.50;;
30543;SDS011;43388;46.308;4.600;2023-07-13T10:42:15;2.30;;;1.38;;
30543;SDS011;43388;46.308;4.600;2023-07-13T10:44:44;2.33;;;1.35;;
30543;SDS011;43388;46.308;4.600;2023-07-13T10:47:12;2.78;;;1.38;;
30543;SDS011;43388;46.308;4.600;2023-07-13T10:49:39;4.68;;;1.48;;
30543;SDS011;43388;46.308;4.600;2023-07-13T10:52:35;6.05;;;1.67;;
30543;SDS011;43388;46.308;4.600;2023-07-13T10:54:53;3.25;;;1.30;;
30543;SDS011;43388;46.308;4.600;2023-07-13T10:57:20;2.85;;;1.50;;
30543;SDS011;43388;46.308;4.600;2023-07-13T11:00:10;2.28;;;1.40;;
30543;SDS011;43388;46.308;4.600;2023-07-13T11:02:35;3.03;;;1.58;;
30543;SDS011;43388;46.308;4.600;2023-07-13T11:05:13;5.47;;;1.40;;
30543;SDS011;43388;46.308;4.600;2023-07-13T11:07:52;3.78;;;1.30;;
30543;SDS011;43388;46.308;4.600;2023-07-13T11:13:03;2.35;;;1.13;;
30543;SDS011;43388;46.308;4.600;2023-07-13T11:15:32;2.03;;;1.45;;
30543;SDS011;43388;46.308;4.600;2023-07-13T11:18:02;1.58;;;1.10;;
30543;SDS011;43388;46.308;4.600;2023-07-13T11:20:32;3.05;;;1.40;;
30543;SDS011;43388;46.308;4.600;2023-07-13T11:25:37;4.50;;;1.10;;
30543;SDS011;43388;46.308;4.600;2023-07-13T11:30:38;2.55;;;1.40;;
30543;SDS011;43388;46.308;4.600;2023-07-13T11:35:37;3.15;;;1.38;;
30543;SDS011;43388;46.308;4.600;2023-07-13T11:38:09;3.65;;;1.30;;
30543;SDS011;43388;46.308;4.600;2023-07-13T11:40:38;1.55;;;1.30;;
30543;SDS011;43388;46.308;4.600;2023-07-13T11:43:04;4.43;;;1.45;;
30543;SDS011;43388;46.308;4.600;2023-07-13T11:45:32;1.27;;;1.08;;
30543;SDS011;43388;46.308;4.600;2023-07-13T11:47:59;3.92;;;1.23;;
30543;SDS011;43388;46.308;4.600;2023-07-13T11:50:26;1.80;;;1.38;;
30543;SDS011;43388;46.308;4.600;2023-07-13T11:52:53;1.65;;;1.40;;
30543;SDS011;43388;46.308;4.600;2023-07-13T11:55:21;4.15;;;2.00;;
30543;SDS011;43388;46.308;4.600;2023-07-13T11:57:50;3.63;;;1.33;;
30543;SDS011;43388;46.308;4.600;2023-07-13T12:00:17;4.35;;;1.45;;
30543;SDS011;43388;46.308;4.600;2023-07-13T12:02:45;1.92;;;1.50;;
30543;SDS011;43388;46.308;4.600;2023-07-13T12:05:12;2.50;;;1.50;;
30543;SDS011;43388;46.308;4.600;2023-07-13T12:07:39;2.50;;;1.52;;
30543;SDS011;43388;46.308;4.600;2023-07-13T12:12:37;4.85;;;1.38;;
30543;SDS011;43388;46.308;4.600;2023-07-13T12:15:06;2.55;;;1.30;;
30543;SDS011;43388;46.308;4.600;2023-07-13T12:17:34;2.13;;;1.20;;
30543;SDS011;43388;46.308;4.600;2023-07-13T12:20:19;1.65;;;1.15;;
30543;SDS011;43388;46.308;4.600;2023-07-13T12:25:12;3.08;;;1.40;;
30543;SDS011;43388;46.308;4.600;2023-07-13T12:27:38;2.28;;;1.20;;
30543;SDS011;43388;46.308;4.600;2023-07-13T12:30:05;2.15;;;1.35;;
30543;SDS011;43388;46.308;4.600;2023-07-13T12:32:41;2.22;;;1.17;;
30543;SDS011;43388;46.308;4.600;2023-07-13T12:35:13;2.50;;;1.40;;
30543;SDS011;43388;46.308;4.600;2023-07-13T12:37:43;2.03;;;1.10;;
30543;SDS011;43388;46.308;4.600;2023-07-13T12:40:13;1.90;;;1.10;;
30543;SDS011;43388;46.308;4.600;2023-07-13T12:42:39;4.70;;;1.50;;
30543;SDS011;43388;46.308;4.600;2023-07-13T12:47:39;3.50;;;1.42;;
30543;SDS011;43388;46.308;4.600;2023-07-13T12:50:14;4.50;;;1.45;;
30543;SDS011;43388;46.308;4.600;2023-07-13T12:52:42;2.72;;;1.27;;
30543;SDS011;43388;46.308;4.600;2023-07-13T12:55:14;3.45;;;1.50;;
30543;SDS011;43388;46.308;4.600;2023-07-13T12:57:45;1.83;;;1.30;;
30543;SDS011;43388;46.308;4.600;2023-07-13T13:00:22;1.75;;;1.30;;
30543;SDS011;43388;46.308;4.600;2023-07-13T13:02:52;2.15;;;1.52;;
30543;SDS011;43388;46.308;4.600;2023-07-13T13:05:19;4.35;;;1.38;;
30543;SDS011;43388;46.308;4.600;2023-07-13T13:07:48;4.38;;;1.15;;
30543;SDS011;43388;46.308;4.600;2023-07-13T13:10:14;3.80;;;1.20;;
30543;SDS011;43388;46.308;4.600;2023-07-13T13:12:40;2.25;;;1.30;;
30543;SDS011;43388;46.308;4.600;2023-07-13T13:15:07;1.30;;;1.20;;
30543;SDS011;43388;46.308;4.600;2023-07-13T13:17:34;1.58;;;1.20;;
30543;SDS011;43388;46.308;4.600;2023-07-13T13:20:00;2.45;;;1.40;;
30543;SDS011;43388;46.308;4.600;2023-07-13T13:22:26;2.47;;;1.25;;
30543;SDS011;43388;46.308;4.600;2023-07-13T13:24:52;5.03;;;1.30;;
30543;SDS011;43388;46.308;4.600;2023-07-13T13:27:19;4.22;;;1.20;;
30543;SDS011;43388;46.308;4.600;2023-07-13T13:29:45;2.03;;;1.00;;
30543;SDS011;43388;46.308;4.600;2023-07-13T13:32:12;1.83;;;1.05;;
30543;SDS011;43388;46.308;4.600;2023-07-13T13:34:38;3.38;;;1.10;;
30543;SDS011;43388;46.308;4.600;2023-07-13T13:37:05;4.32;;;1.55;;
30543;SDS011;43388;46.308;4.600;2023-07-13T13:39:38;3.30;;;1.15;;
30543;SDS011;43388;46.308;4.600;2023-07-13T13:42:05;4.13;;;1.02;;
30543;SDS011;43388;46.308;4.600;2023-07-13T13:44:31;1.65;;;1.30;;
30543;SDS011;43388;46.308;4.600;2023-07-13T13:46:57;1.58;;;1.10;;
30543;SDS011;43388;46.308;4.600;2023-07-13T13:49:24;1.67;;;1.10;;
30543;SDS011;43388;46.308;4.600;2023-07-13T13:51:51;9.85;;;1.33;;
30543;SDS011;43388;46.308;4.600;2023-07-13T13:54:17;2.75;;;1.10;;
30543;SDS011;43388;46.308;4.600;2023-07-13T13:56:45;2.45;;;1.25;;
30543;SDS011;43388;46.308;4.600;2023-07-13T13:59:12;3.17;;;1.30;;
30543;SDS011;43388;46.308;4.600;2023-07-13T14:01:38;1.70;;;1.15;;
30543;SDS011;43388;46.308;4.600;2023-07-13T14:04:05;2.88;;;1.25;;
30543;SDS011;43388;46.308;4.600;2023-07-13T14:06:32;4.30;;;1.40;;
30543;SDS011;43388;46.308;4.600;2023-07-13T14:08:59;2.80;;;1.15;;
30543;SDS011;43388;46.308;4.600;2023-07-13T14:11:26;2.05;;;1.35;;
30543;SDS011;43388;46.308;4.600;2023-07-13T14:13:56;2.67;;;1.10;;
30543;SDS011;43388;46.308;4.600;2023-07-13T14:16:24;2.60;;;1.02;;
30543;SDS011;43388;46.308;4.600;2023-07-13T14:18:52;1.88;;;1.08;;
30543;SDS011;43388;46.308;4.600;2023-07-13T14:21:21;2.70;;;1.15;;
30543;SDS011;43388;46.308;4.600;2023-07-13T14:23:48;2.33;;;1.00;;
30543;SDS011;43388;46.308;4.600;2023-07-13T14:26:16;3.30;;;1.20;;
30543;SDS011;43388;46.308;4.600;2023-07-13T14:28:43;2.03;;;1.13;;
30543;SDS011;43388;46.308;4.600;2023-07-13T14:31:11;1.80;;;1.17;;
30543;SDS011;43388;46.308;4.600;2023-07-13T14:33:37;3.22;;;1.25;;
30543;SDS011;43388;46.308;4.600;2023-07-13T14:36:09;4.15;;;1.13;;
30543;SDS011;43388;46.308;4.600;2023-07-13T14:38:42;4.82;;;1.00;;
30543;SDS011;43388;46.308;4.600;2023-07-13T14:41:08;5.10;;;1.48;;
30543;SDS011;43388;46.308;4.600;2023-07-13T14:43:34;5.07;;;1.38;;
30543;SDS011;43388;46.308;4.600;2023-07-13T14:46:00;4.00;;;1.23;;
30543;SDS011;43388;46.308;4.600;2023-07-13T14:48:26;4.40;;;0.95;;
30543;SDS011;43388;46.308;4.600;2023-07-13T14:50:56;2.53;;;1.20;;
30543;SDS011;43388;46.308;4.600;2023-07-13T14:53:22;1.65;;;1.00;;
30543;SDS011;43388;46.308;4.600;2023-07-13T14:55:49;2.78;;;1.35;;
30543;SDS011;43388;46.308;4.600;2023-07-13T14:58:15;2.38;;;1.30;;
30543;SDS011;43388;46.308;4.600;2023-07-13T15:00:41;2.42;;;1.27;;
30543;SDS011;43388;46.308;4.600;2023-07-13T15:03:12;2.58;;;0.95;;
30543;SDS011;43388;46.308;4.600;2023-07-13T15:08:08;7.78;;;1.45;;
30543;SDS011;43388;46.308;4.600;2023-07-13T15:10:35;3.83;;;1.30;;
30543;SDS011;43388;46.308;4.600;2023-07-13T15:13:15;2.70;;;1.17;;
30543;SDS011;43388;46.308;4.600;2023-07-13T15:15:43;6.53;;;1.40;;
30543;SDS011;43388;46.308;4.600;2023-07-13T15:18:11;3.50;;;1.35;;
30543;SDS011;43388;46.308;4.600;2023-07-13T15:20:37;2.03;;;1.23;;
30543;SDS011;43388;46.308;4.600;2023-07-13T15:23:03;4.80;;;1.35;;
30543;SDS011;43388;46.308;4.600;2023-07-13T15:25:32;3.35;;;1.35;;